Cincinnati Municipal Airport Lunken Field
KLUK : now visible

Airfield :











YOU CAN JOIN US ON...

 
LOGIN :

Register | Disclaimer

   EN    FR    IT 

 









Legend :    VFR   Marginal VFR   IFR   Intensive IFR   Very Intensive IFR
Visi :
Ceiling :
>= 8 km
>= 3000ft
5 to 8 km
1000 to 3000 ft
1500m to 5 km
500 to 1000 ft
800 to 1500m
200 to 500 ft
< 800m
< 200 ft
Symbols :   Thunderstorms  Fog  Heavy snow  Heavy precipitations  Wind > 20 kt






- Airport Elevation : 483 ft
- IATA code : LUK


KLUK - Cincinnati Municipal Lunken Field

CURRENT METAR :
  • 011753Z 35008KT 10SM FEW034 BKN050 OVC075 12/04 A3002 RMK AO2 SLP167 T01220039 10122 20061 58002

EXPIRED METARs :
  • 011653Z 35010KT 10SM BKN032 OVC075 11/04 A3003 RMK AO2 SLP170 T01110044
  • 011553Z 35009KT 10SM SCT025 OVC032 09/04 A3003 RMK AO2 SLP170 T00940039

TAF KLUK
Valid from the 01 at 18:00 until the 02 at 18:00 UTC


011740Z 0118/0218 35008KT P6SM SCT025 BKN035
TEMPO 0118/0120 BKN025
FM020000 34004KT P6SM SCT070
FM020300 34003KT P6SM SCT100
FM020500 36004KT P6SM FEW250



MET'MAP, your aeronautical weather chart ! - Copyright ORBIFLY December 2007 - Disclaimer

ORBIFLY MET'MAP TEAM :

Programming & Development : Alexandra Zaïnal
Concept & original design : Baudouin d'Aumeries
Assistance for programming : Marc-Olivier Méhu
Technical & hardware support : Manuel Goepfert

Contact : metmap@orbifly.com




SOURCES & CREDITS :

   NOAA       Earth
Advisory